sensor_id;sensor_type;location;lat;lon;timestamp;temperature;humidity
1994;DHT22;998;49.906;10.908;2023-04-07T00:02:00;5.70;99.90
1994;DHT22;998;49.906;10.908;2023-04-07T00:04:27;5.50;99.90
1994;DHT22;998;49.906;10.908;2023-04-07T00:06:54;5.50;99.90
1994;DHT22;998;49.906;10.908;2023-04-07T00:09:23;5.70;99.90
1994;DHT22;998;49.906;10.908;2023-04-07T00:11:51;5.90;99.90
1994;DHT22;998;49.906;10.908;2023-04-07T00:14:18;6.00;99.90
1994;DHT22;998;49.906;10.908;2023-04-07T00:16:45;6.00;99.90
1994;DHT22;998;49.906;10.908;2023-04-07T00:19:13;5.90;99.90
1994;DHT22;998;49.906;10.908;2023-04-07T00:21:40;5.90;99.90
1994;DHT22;998;49.906;10.908;2023-04-07T00:24:07;5.90;99.90
1994;DHT22;998;49.906;10.908;2023-04-07T00:26:36;5.90;99.90
1994;DHT22;998;49.906;10.908;2023-04-07T00:29:04;5.90;99.90
1994;DHT22;998;49.906;10.908;2023-04-07T00:31:31;5.90;99.90
1994;DHT22;998;49.906;10.908;2023-04-07T00:33:58;6.00;99.90
1994;DHT22;998;49.906;10.908;2023-04-07T00:36:26;6.00;99.90
1994;DHT22;998;49.906;10.908;2023-04-07T00:38:53;6.00;99.90
1994;DHT22;998;49.906;10.908;2023-04-07T00:41:21;5.90;99.90
1994;DHT22;998;49.906;10.908;2023-04-07T00:43:50;5.90;99.90
1994;DHT22;998;49.906;10.908;2023-04-07T00:46:21;5.80;99.90
1994;DHT22;998;49.906;10.908;2023-04-07T00:48:49;5.80;99.90
1994;DHT22;998;49.906;10.908;2023-04-07T00:51:18;5.80;99.90
1994;DHT22;998;49.906;10.908;2023-04-07T00:53:46;5.70;99.90
1994;DHT22;998;49.906;10.908;2023-04-07T00:56:13;5.70;99.90
1994;DHT22;998;49.906;10.908;2023-04-07T00:58:41;5.70;99.90
1994;DHT22;998;49.906;10.908;2023-04-07T01:01:14;5.70;99.90
1994;DHT22;998;49.906;10.908;2023-04-07T01:03:48;5.70;99.90
1994;DHT22;998;49.906;10.908;2023-04-07T01:06:21;5.60;99.90
1994;DHT22;998;49.906;10.908;2023-04-07T01:08:56;5.60;99.90
1994;DHT22;998;49.906;10.908;2023-04-07T01:11:31;5.60;99.90
1994;DHT22;998;49.906;10.908;2023-04-07T01:14:02;5.50;99.90
1994;DHT22;998;49.906;10.908;2023-04-07T01:16:37;5.50;99.90
1994;DHT22;998;49.906;10.908;2023-04-07T01:19:13;5.50;99.90
1994;DHT22;998;49.906;10.908;2023-04-07T01:21:43;5.40;99.90
1994;DHT22;998;49.906;10.908;2023-04-07T01:24:54;5.40;99.90
1994;DHT22;998;49.906;10.908;2023-04-07T01:27:35;5.40;99.90
1994;DHT22;998;49.906;10.908;2023-04-07T01:30:10;5.30;99.90
1994;DHT22;998;49.906;10.908;2023-04-07T01:32:40;5.40;99.90
1994;DHT22;998;49.906;10.908;2023-04-07T01:35:12;5.30;99.90
1994;DHT22;998;49.906;10.908;2023-04-07T01:37:40;5.30;99.90
1994;DHT22;998;49.906;10.908;2023-04-07T01:40:08;5.30;99.90
1994;DHT22;998;49.906;10.908;2023-04-07T01:42:37;5.20;99.90
1994;DHT22;998;49.906;10.908;2023-04-07T01:45:08;5.20;99.90
1994;DHT22;998;49.906;10.908;2023-04-07T01:47:36;5.20;99.90
1994;DHT22;998;49.906;10.908;2023-04-07T01:50:05;5.10;99.90
1994;DHT22;998;49.906;10.908;2023-04-07T01:52:34;5.10;99.90
1994;DHT22;998;49.906;10.908;2023-04-07T01:55:02;5.30;99.90
1994;DHT22;998;49.906;10.908;2023-04-07T01:57:30;5.30;99.90
1994;DHT22;998;49.906;10.908;2023-04-07T01:59:57;5.20;99.90
1994;DHT22;998;49.906;10.908;2023-04-07T02:02:26;5.20;99.90
1994;DHT22;998;49.906;10.908;2023-04-07T02:04:55;5.20;99.90
1994;DHT22;998;49.906;10.908;2023-04-07T02:07:27;5.20;99.90
1994;DHT22;998;49.906;10.908;2023-04-07T02:09:58;5.10;99.90
1994;DHT22;998;49.906;10.908;2023-04-07T02:12:27;5.20;99.90
1994;DHT22;998;49.906;10.908;2023-04-07T02:14:55;5.10;99.90
1994;DHT22;998;49.906;10.908;2023-04-07T02:17:26;5.10;99.90
1994;DHT22;998;49.906;10.908;2023-04-07T02:19:55;5.10;99.90
1994;DHT22;998;49.906;10.908;2023-04-07T02:22:23;5.00;99.90
1994;DHT22;998;49.906;10.908;2023-04-07T02:24:51;5.00;99.90
1994;DHT22;998;49.906;10.908;2023-04-07T02:27:18;5.10;99.90
1994;DHT22;998;49.906;10.908;2023-04-07T02:29:45;5.00;99.90
1994;DHT22;998;49.906;10.908;2023-04-07T02:32:13;4.80;99.90
1994;DHT22;998;49.906;10.908;2023-04-07T02:34:44;4.70;99.90
1994;DHT22;998;49.906;10.908;2023-04-07T02:37:11;4.80;99.90
1994;DHT22;998;49.906;10.908;2023-04-07T02:39:38;4.80;99.90
1994;DHT22;998;49.906;10.908;2023-04-07T02:42:06;4.90;99.90
1994;DHT22;998;49.906;10.908;2023-04-07T02:44:33;4.90;99.90
1994;DHT22;998;49.906;10.908;2023-04-07T02:47:00;4.90;99.90
1994;DHT22;998;49.906;10.908;2023-04-07T02:49:28;4.90;99.90
1994;DHT22;998;49.906;10.908;2023-04-07T02:51:56;4.80;99.90
1994;DHT22;998;49.906;10.908;2023-04-07T02:54:24;4.70;99.90
1994;DHT22;998;49.906;10.908;2023-04-07T02:56:51;4.70;99.90
1994;DHT22;998;49.906;10.908;2023-04-07T02:59:18;4.80;99.90
1994;DHT22;998;49.906;10.908;2023-04-07T03:01:46;4.70;99.90
1994;DHT22;998;49.906;10.908;2023-04-07T03:04:13;4.70;99.90
1994;DHT22;998;49.906;10.908;2023-04-07T03:06:41;4.70;99.90
1994;DHT22;998;49.906;10.908;2023-04-07T03:09:10;4.80;99.90
1994;DHT22;998;49.906;10.908;2023-04-07T03:11:37;4.70;99.90
1994;DHT22;998;49.906;10.908;2023-04-07T03:14:04;4.60;99.90
1994;DHT22;998;49.906;10.908;2023-04-07T03:16:32;4.70;99.90
1994;DHT22;998;49.906;10.908;2023-04-07T03:18:59;4.60;99.90
1994;DHT22;998;49.906;10.908;2023-04-07T03:21:26;4.50;99.90
1994;DHT22;998;49.906;10.908;2023-04-07T03:23:54;4.50;99.90
1994;DHT22;998;49.906;10.908;2023-04-07T03:26:23;4.50;99.90
1994;DHT22;998;49.906;10.908;2023-04-07T03:28:50;4.50;99.90
1994;DHT22;998;49.906;10.908;2023-04-07T03:31:18;4.50;99.90
1994;DHT22;998;49.906;10.908;2023-04-07T03:33:45;4.50;99.90
1994;DHT22;998;49.906;10.908;2023-04-07T03:36:12;4.50;99.90
1994;DHT22;998;49.906;10.908;2023-04-07T03:38:40;4.50;99.90
1994;DHT22;998;49.906;10.908;2023-04-07T03:41:07;4.60;99.90
1994;DHT22;998;49.906;10.908;2023-04-07T03:43:36;4.60;99.90
1994;DHT22;998;49.906;10.908;2023-04-07T03:46:04;4.60;99.90
1994;DHT22;998;49.906;10.908;2023-04-07T03:48:31;4.60;99.90
1994;DHT22;998;49.906;10.908;2023-04-07T03:50:59;4.60;99.90
1994;DHT22;998;49.906;10.908;2023-04-07T03:53:26;4.70;99.90
1994;DHT22;998;49.906;10.908;2023-04-07T03:55:53;4.60;99.90
1994;DHT22;998;49.906;10.908;2023-04-07T03:58:21;4.60;99.90
1994;DHT22;998;49.906;10.908;2023-04-07T04:00:50;4.50;99.90
1994;DHT22;998;49.906;10.908;2023-04-07T04:03:17;4.40;99.90
1994;DHT22;998;49.906;10.908;2023-04-07T04:05:44;4.40;99.90
1994;DHT22;998;49.906;10.908;2023-04-07T04:08:12;4.40;99.90
1994;DHT22;998;49.906;10.908;2023-04-07T04:10:39;4.40;99.90
1994;DHT22;998;49.906;10.908;2023-04-07T04:13:07;4.50;99.90
1994;DHT22;998;49.906;10.908;2023-04-07T04:15:34;4.60;99.90
1994;DHT22;998;49.906;10.908;2023-04-07T04:18:03;4.60;99.90
1994;DHT22;998;49.906;10.908;2023-04-07T04:20:30;4.40;99.90
1994;DHT22;998;49.906;10.908;2023-04-07T04:22:58;4.30;99.90
1994;DHT22;998;49.906;10.908;2023-04-07T04:25:25;4.30;99.90
1994;DHT22;998;49.906;10.908;2023-04-07T04:27:53;4.30;99.90
1994;DHT22;998;49.906;10.908;2023-04-07T04:30:20;4.40;99.90
1994;DHT22;998;49.906;10.908;2023-04-07T04:32:48;4.30;99.90
1994;DHT22;998;49.906;10.908;2023-04-07T04:35:17;4.20;99.90
1994;DHT22;998;49.906;10.908;2023-04-07T04:37:44;4.30;99.90
1994;DHT22;998;49.906;10.908;2023-04-07T04:40:12;4.30;99.90
1994;DHT22;998;49.906;10.908;2023-04-07T04:42:40;4.30;99.90
1994;DHT22;998;49.906;10.908;2023-04-07T04:45:08;4.30;99.90
1994;DHT22;998;49.906;10.908;2023-04-07T04:47:35;4.20;99.90
1994;DHT22;998;49.906;10.908;2023-04-07T04:50:04;4.10;99.90
1994;DHT22;998;49.906;10.908;2023-04-07T04:52:33;4.20;99.90
1994;DHT22;998;49.906;10.908;2023-04-07T04:55:00;4.10;99.90
1994;DHT22;998;49.906;10.908;2023-04-07T04:57:28;4.00;99.90
1994;DHT22;998;49.906;10.908;2023-04-07T04:59:55;4.00;99.90
1994;DHT22;998;49.906;10.908;2023-04-07T05:02:22;4.00;99.90
1994;DHT22;998;49.906;10.908;2023-04-07T05:04:50;4.00;99.90
1994;DHT22;998;49.906;10.908;2023-04-07T05:07:17;4.00;99.90
1994;DHT22;998;49.906;10.908;2023-04-07T05:09:46;4.10;99.90
1994;DHT22;998;49.906;10.908;2023-04-07T05:12:14;4.00;99.90
1994;DHT22;998;49.906;10.908;2023-04-07T05:14:42;3.90;99.90
1994;DHT22;998;49.906;10.908;2023-04-07T05:17:09;4.00;99.90
1994;DHT22;998;49.906;10.908;2023-04-07T05:19:37;4.10;99.90
1994;DHT22;998;49.906;10.908;2023-04-07T05:22:04;4.10;99.90
1994;DHT22;998;49.906;10.908;2023-04-07T05:24:32;4.10;99.90
1994;DHT22;998;49.906;10.908;2023-04-07T05:27:00;4.10;99.90
1994;DHT22;998;49.906;10.908;2023-04-07T05:29:28;4.10;99.90
1994;DHT22;998;49.906;10.908;2023-04-07T05:31:55;4.10;99.90
1994;DHT22;998;49.906;10.908;2023-04-07T05:34:22;4.10;99.90
1994;DHT22;998;49.906;10.908;2023-04-07T05:36:50;4.20;99.90
1994;DHT22;998;49.906;10.908;2023-04-07T05:39:17;4.30;99.90
1994;DHT22;998;49.906;10.908;2023-04-07T05:41:45;4.40;99.90
1994;DHT22;998;49.906;10.908;2023-04-07T05:44:14;4.30;99.90
1994;DHT22;998;49.906;10.908;2023-04-07T05:46:41;4.40;99.90
1994;DHT22;998;49.906;10.908;2023-04-07T05:49:08;4.60;99.90
1994;DHT22;998;49.906;10.908;2023-04-07T05:51:36;4.50;99.90
1994;DHT22;998;49.906;10.908;2023-04-07T05:54:04;4.60;99.90
1994;DHT22;998;49.906;10.908;2023-04-07T05:56:31;4.50;99.90
1994;DHT22;998;49.906;10.908;2023-04-07T05:58:59;4.50;99.90
1994;DHT22;998;49.906;10.908;2023-04-07T06:01:28;4.50;99.90
1994;DHT22;998;49.906;10.908;2023-04-07T06:03:55;4.50;99.90
1994;DHT22;998;49.906;10.908;2023-04-07T06:06:23;4.60;99.90
1994;DHT22;998;49.906;10.908;2023-04-07T06:08:51;4.60;99.90
1994;DHT22;998;49.906;10.908;2023-04-07T06:11:18;4.60;99.90
1994;DHT22;998;49.906;10.908;2023-04-07T06:13:46;4.70;99.90
1994;DHT22;998;49.906;10.908;2023-04-07T06:16:13;4.70;99.90
1994;DHT22;998;49.906;10.908;2023-04-07T06:18:42;4.60;99.90
1994;DHT22;998;49.906;10.908;2023-04-07T06:21:09;4.60;99.90
1994;DHT22;998;49.906;10.908;2023-04-07T06:23:37;4.60;99.90
1994;DHT22;998;49.906;10.908;2023-04-07T06:26:04;4.80;99.90
1994;DHT22;998;49.906;10.908;2023-04-07T06:28:31;4.80;99.90
1994;DHT22;998;49.906;10.908;2023-04-07T06:30:59;4.90;99.90
1994;DHT22;998;49.906;10.908;2023-04-07T06:33:26;5.00;99.90
1994;DHT22;998;49.906;10.908;2023-04-07T06:35:55;5.10;99.90
1994;DHT22;998;49.906;10.908;2023-04-07T06:38:23;5.10;99.90
1994;DHT22;998;49.906;10.908;2023-04-07T06:40:51;5.10;99.90
1994;DHT22;998;49.906;10.908;2023-04-07T06:43:18;5.20;99.90
1994;DHT22;998;49.906;10.908;2023-04-07T06:45:46;5.10;99.90
1994;DHT22;998;49.906;10.908;2023-04-07T06:48:13;5.10;99.90
1994;DHT22;998;49.906;10.908;2023-04-07T06:50:40;5.20;99.90
1994;DHT22;998;49.906;10.908;2023-04-07T06:53:09;5.30;99.90
1994;DHT22;998;49.906;10.908;2023-04-07T06:55:37;5.30;99.90
1994;DHT22;998;49.906;10.908;2023-04-07T06:58:04;5.40;99.90
1994;DHT22;998;49.906;10.908;2023-04-07T07:00:31;5.40;99.90
1994;DHT22;998;49.906;10.908;2023-04-07T07:02:59;5.40;99.90
1994;DHT22;998;49.906;10.908;2023-04-07T07:05:26;5.40;99.90
1994;DHT22;998;49.906;10.908;2023-04-07T07:07:54;5.50;99.90
1994;DHT22;998;49.906;10.908;2023-04-07T07:10:23;5.50;99.90
1994;DHT22;998;49.906;10.908;2023-04-07T07:12:50;5.70;99.90
1994;DHT22;998;49.906;10.908;2023-04-07T07:15:18;5.60;99.90
1994;DHT22;998;49.906;10.908;2023-04-07T07:17:45;5.60;99.90
1994;DHT22;998;49.906;10.908;2023-04-07T07:20:13;5.70;99.90
1994;DHT22;998;49.906;10.908;2023-04-07T07:22:40;5.70;99.90
1994;DHT22;998;49.906;10.908;2023-04-07T07:25:08;5.80;99.90
1994;DHT22;998;49.906;10.908;2023-04-07T07:27:37;5.90;99.90
1994;DHT22;998;49.906;10.908;2023-04-07T07:30:05;5.90;99.90
1994;DHT22;998;49.906;10.908;2023-04-07T07:32:33;6.00;99.90
1994;DHT22;998;49.906;10.908;2023-04-07T07:35:00;6.00;99.90
1994;DHT22;998;49.906;10.908;2023-04-07T07:37:28;6.10;99.90
1994;DHT22;998;49.906;10.908;2023-04-07T07:39:55;6.10;99.90
1994;DHT22;998;49.906;10.908;2023-04-07T07:42:22;6.10;99.90
1994;DHT22;998;49.906;10.908;2023-04-07T07:44:51;6.20;99.90
1994;DHT22;998;49.906;10.908;2023-04-07T07:47:19;6.30;99.90
1994;DHT22;998;49.906;10.908;2023-04-07T07:49:46;6.30;99.90
1994;DHT22;998;49.906;10.908;2023-04-07T07:52:13;6.40;99.90
1994;DHT22;998;49.906;10.908;2023-04-07T07:54:41;6.50;99.90
1994;DHT22;998;49.906;10.908;2023-04-07T07:57:08;6.50;99.90
1994;DHT22;998;49.906;10.908;2023-04-07T07:59:36;6.60;99.90
1994;DHT22;998;49.906;10.908;2023-04-07T08:02:05;6.60;99.90
1994;DHT22;998;49.906;10.908;2023-04-07T08:04:33;6.70;99.90
1994;DHT22;998;49.906;10.908;2023-04-07T08:07:01;6.80;99.90
1994;DHT22;998;49.906;10.908;2023-04-07T08:09:28;6.90;99.90
1994;DHT22;998;49.906;10.908;2023-04-07T08:11:56;6.90;99.90
1994;DHT22;998;49.906;10.908;2023-04-07T08:14:24;7.00;99.90
1994;DHT22;998;49.906;10.908;2023-04-07T08:16:51;7.00;99.90
1994;DHT22;998;49.906;10.908;2023-04-07T08:19:20;7.10;99.90
1994;DHT22;998;49.906;10.908;2023-04-07T08:21:48;7.20;99.90
1994;DHT22;998;49.906;10.908;2023-04-07T08:24:16;7.20;99.90
1994;DHT22;998;49.906;10.908;2023-04-07T08:26:43;7.20;99.90
1994;DHT22;998;49.906;10.908;2023-04-07T08:29:11;7.20;99.90
1994;DHT22;998;49.906;10.908;2023-04-07T08:31:38;7.30;99.90
1994;DHT22;998;49.906;10.908;2023-04-07T08:34:06;7.40;99.90
1994;DHT22;998;49.906;10.908;2023-04-07T08:36:35;7.50;99.90
1994;DHT22;998;49.906;10.908;2023-04-07T08:39:02;7.60;99.90
1994;DHT22;998;49.906;10.908;2023-04-07T08:41:34;7.70;99.90
1994;DHT22;998;49.906;10.908;2023-04-07T08:44:02;7.90;99.90
1994;DHT22;998;49.906;10.908;2023-04-07T08:46:31;8.00;99.90
1994;DHT22;998;49.906;10.908;2023-04-07T08:49:00;8.10;99.90
1994;DHT22;998;49.906;10.908;2023-04-07T08:51:30;8.00;99.90
1994;DHT22;998;49.906;10.908;2023-04-07T08:54:04;8.00;99.90
1994;DHT22;998;49.906;10.908;2023-04-07T08:56:32;8.00;99.90
1994;DHT22;998;49.906;10.908;2023-04-07T08:59:01;8.10;99.90
1994;DHT22;998;49.906;10.908;2023-04-07T09:01:28;8.30;99.90
1994;DHT22;998;49.906;10.908;2023-04-07T09:03:56;8.40;99.90
1994;DHT22;998;49.906;10.908;2023-04-07T09:06:24;8.40;99.90
1994;DHT22;998;49.906;10.908;2023-04-07T09:08:52;8.40;99.90
1994;DHT22;998;49.906;10.908;2023-04-07T09:11:21;8.40;99.90
1994;DHT22;998;49.906;10.908;2023-04-07T09:13:49;8.50;99.90
1994;DHT22;998;49.906;10.908;2023-04-07T09:16:16;8.50;99.90
1994;DHT22;998;49.906;10.908;2023-04-07T09:18:44;8.60;99.90
1994;DHT22;998;49.906;10.908;2023-04-07T09:21:11;8.50;99.90
1994;DHT22;998;49.906;10.908;2023-04-07T09:23:39;8.50;99.90
1994;DHT22;998;49.906;10.908;2023-04-07T09:26:21;8.80;99.90
1994;DHT22;998;49.906;10.908;2023-04-07T09:28:51;9.00;99.90
1994;DHT22;998;49.906;10.908;2023-04-07T09:31:19;9.00;99.90
1994;DHT22;998;49.906;10.908;2023-04-07T09:33:47;8.90;99.90
1994;DHT22;998;49.906;10.908;2023-04-07T09:36:15;8.90;99.90
1994;DHT22;998;49.906;10.908;2023-04-07T09:38:43;9.00;99.90
1994;DHT22;998;49.906;10.908;2023-04-07T09:41:12;9.00;99.90
1994;DHT22;998;49.906;10.908;2023-04-07T09:43:42;9.20;99.90
1994;DHT22;998;49.906;10.908;2023-04-07T09:46:12;9.30;99.90
1994;DHT22;998;49.906;10.908;2023-04-07T09:48:40;9.30;99.90
1994;DHT22;998;49.906;10.908;2023-04-07T09:51:12;9.20;99.90
1994;DHT22;998;49.906;10.908;2023-04-07T09:53:46;9.20;99.90
1994;DHT22;998;49.906;10.908;2023-04-07T09:56:15;9.20;99.90
1994;DHT22;998;49.906;10.908;2023-04-07T09:58:45;9.20;99.90
1994;DHT22;998;49.906;10.908;2023-04-07T10:01:14;9.20;99.90
1994;DHT22;998;49.906;10.908;2023-04-07T10:03:43;9.20;99.90
1994;DHT22;998;49.906;10.908;2023-04-07T10:06:11;9.40;99.90
1994;DHT22;998;49.906;10.908;2023-04-07T10:08:40;9.50;99.90
1994;DHT22;998;49.906;10.908;2023-04-07T10:11:09;9.50;99.90
1994;DHT22;998;49.906;10.908;2023-04-07T10:13:38;9.50;99.90
1994;DHT22;998;49.906;10.908;2023-04-07T10:16:08;9.40;99.90
1994;DHT22;998;49.906;10.908;2023-04-07T10:18:36;9.60;99.90
1994;DHT22;998;49.906;10.908;2023-04-07T10:21:06;9.70;99.90
1994;DHT22;998;49.906;10.908;2023-04-07T10:23:49;9.80;99.90
1994;DHT22;998;49.906;10.908;2023-04-07T10:26:21;9.90;99.90
1994;DHT22;998;49.906;10.908;2023-04-07T10:29:07;9.90;99.90
1994;DHT22;998;49.906;10.908;2023-04-07T10:31:38;10.10;99.80
1994;DHT22;998;49.906;10.908;2023-04-07T10:34:05;10.40;99.90
1994;DHT22;998;49.906;10.908;2023-04-07T10:36:32;10.20;99.90
1994;DHT22;998;49.906;10.908;2023-04-07T10:39:19;10.20;99.00
1994;DHT22;998;49.906;10.908;2023-04-07T10:41:46;10.30;99.20
1994;DHT22;998;49.906;10.908;2023-04-07T10:44:45;10.30;97.60
1994;DHT22;998;49.906;10.908;2023-04-07T10:47:14;10.60;96.00
1994;DHT22;998;49.906;10.908;2023-04-07T10:50:15;10.60;96.30
1994;DHT22;998;49.906;10.908;2023-04-07T10:52:44;10.50;96.60
1994;DHT22;998;49.906;10.908;2023-04-07T10:55:31;10.70;96.50
1994;DHT22;998;49.906;10.908;2023-04-07T10:58:18;10.90;96.00
1994;DHT22;998;49.906;10.908;2023-04-07T11:04:01;11.30;92.50
1994;DHT22;998;49.906;10.908;2023-04-07T11:06:29;11.40;91.90
1994;DHT22;998;49.906;10.908;2023-04-07T11:08:57;11.40;91.50
1994;DHT22;998;49.906;10.908;2023-04-07T11:11:40;11.40;91.80
1994;DHT22;998;49.906;10.908;2023-04-07T11:14:08;11.40;92.80
1994;DHT22;998;49.906;10.908;2023-04-07T11:16:40;11.60;91.90
1994;DHT22;998;49.906;10.908;2023-04-07T11:19:10;11.80;90.10
1994;DHT22;998;49.906;10.908;2023-04-07T11:21:38;12.00;84.50
1994;DHT22;998;49.906;10.908;2023-04-07T11:24:06;12.20;83.80
1994;DHT22;998;49.906;10.908;2023-04-07T11:26:38;12.30;85.50
1994;DHT22;998;49.906;10.908;2023-04-07T11:29:05;12.50;84.60
1994;DHT22;998;49.906;10.908;2023-04-07T11:31:33;12.80;81.80
1994;DHT22;998;49.906;10.908;2023-04-07T11:34:02;13.20;80.20
1994;DHT22;998;49.906;10.908;2023-04-07T11:36:34;13.80;80.80
1994;DHT22;998;49.906;10.908;2023-04-07T11:39:02;14.20;75.40
1994;DHT22;998;49.906;10.908;2023-04-07T11:41:31;14.30;73.40
1994;DHT22;998;49.906;10.908;2023-04-07T11:44:06;14.50;73.30
1994;DHT22;998;49.906;10.908;2023-04-07T11:46:34;15.00;74.70
1994;DHT22;998;49.906;10.908;2023-04-07T11:49:09;15.40;76.50
1994;DHT22;998;49.906;10.908;2023-04-07T11:51:39;15.70;68.80
1994;DHT22;998;49.906;10.908;2023-04-07T11:54:07;15.60;73.00
1994;DHT22;998;49.906;10.908;2023-04-07T11:56:42;15.40;67.30
1994;DHT22;998;49.906;10.908;2023-04-07T11:59:18;15.40;68.20
1994;DHT22;998;49.906;10.908;2023-04-07T12:01:47;15.40;69.00
1994;DHT22;998;49.906;10.908;2023-04-07T12:04:15;15.00;70.50
1994;DHT22;998;49.906;10.908;2023-04-07T12:06:45;15.20;59.80
1994;DHT22;998;49.906;10.908;2023-04-07T12:09:27;14.90;59.00
1994;DHT22;998;49.906;10.908;2023-04-07T12:11:55;14.40;59.30
1994;DHT22;998;49.906;10.908;2023-04-07T12:14:23;14.40;59.30
1994;DHT22;998;49.906;10.908;2023-04-07T12:16:51;14.40;59.20
1994;DHT22;998;49.906;10.908;2023-04-07T12:19:20;14.60;58.70
1994;DHT22;998;49.906;10.908;2023-04-07T12:21:49;15.00;60.00
1994;DHT22;998;49.906;10.908;2023-04-07T12:24:15;15.50;60.90
1994;DHT22;998;49.906;10.908;2023-04-07T12:26:42;16.10;61.30
1994;DHT22;998;49.906;10.908;2023-04-07T12:29:09;16.10;60.10
1994;DHT22;998;49.906;10.908;2023-04-07T12:31:37;16.20;58.70
1994;DHT22;998;49.906;10.908;2023-04-07T12:34:04;16.40;57.20
1994;DHT22;998;49.906;10.908;2023-04-07T12:36:32;16.70;59.00
1994;DHT22;998;49.906;10.908;2023-04-07T12:39:01;17.10;57.00
1994;DHT22;998;49.906;10.908;2023-04-07T12:41:28;17.60;58.40
1994;DHT22;998;49.906;10.908;2023-04-07T12:43:56;17.50;56.10
1994;DHT22;998;49.906;10.908;2023-04-07T12:46:23;16.90;53.30
1994;DHT22;998;49.906;10.908;2023-04-07T12:48:51;16.80;55.20
1994;DHT22;998;49.906;10.908;2023-04-07T12:51:18;17.00;55.70
1994;DHT22;998;49.906;10.908;2023-04-07T12:53:45;17.00;56.00
1994;DHT22;998;49.906;10.908;2023-04-07T12:56:14;16.90;54.30
1994;DHT22;998;49.906;10.908;2023-04-07T12:58:42;16.60;53.20
1994;DHT22;998;49.906;10.908;2023-04-07T13:01:09;16.90;53.90
1994;DHT22;998;49.906;10.908;2023-04-07T13:03:36;16.90;54.20
1994;DHT22;998;49.906;10.908;2023-04-07T13:06:04;16.30;53.80
1994;DHT22;998;49.906;10.908;2023-04-07T13:08:32;15.90;54.70
1994;DHT22;998;49.906;10.908;2023-04-07T13:11:00;15.80;54.70
1994;DHT22;998;49.906;10.908;2023-04-07T13:13:30;15.80;57.00
1994;DHT22;998;49.906;10.908;2023-04-07T13:15:57;15.70;59.10
1994;DHT22;998;49.906;10.908;2023-04-07T13:18:25;15.70;58.50
1994;DHT22;998;49.906;10.908;2023-04-07T13:20:52;15.70;58.10
1994;DHT22;998;49.906;10.908;2023-04-07T13:23:19;16.00;57.30
1994;DHT22;998;49.906;10.908;2023-04-07T13:25:47;16.00;58.50
1994;DHT22;998;49.906;10.908;2023-04-07T13:28:15;15.90;59.10
1994;DHT22;998;49.906;10.908;2023-04-07T13:30:47;15.80;58.90
1994;DHT22;998;49.906;10.908;2023-04-07T13:33:14;16.30;56.20
1994;DHT22;998;49.906;10.908;2023-04-07T13:35:42;16.50;56.80
1994;DHT22;998;49.906;10.908;2023-04-07T13:38:09;16.40;56.50
1994;DHT22;998;49.906;10.908;2023-04-07T13:40:36;16.70;55.80
1994;DHT22;998;49.906;10.908;2023-04-07T13:43:04;16.60;54.60
1994;DHT22;998;49.906;10.908;2023-04-07T13:45:32;16.70;54.50
1994;DHT22;998;49.906;10.908;2023-04-07T13:48:02;16.80;55.40
1994;DHT22;998;49.906;10.908;2023-04-07T13:50:30;17.10;55.20
1994;DHT22;998;49.906;10.908;2023-04-07T13:52:57;17.30;55.50
1994;DHT22;998;49.906;10.908;2023-04-07T13:55:25;17.40;55.70
1994;DHT22;998;49.906;10.908;2023-04-07T13:57:52;17.50;55.40
1994;DHT22;998;49.906;10.908;2023-04-07T14:00:20;17.30;55.60
1994;DHT22;998;49.906;10.908;2023-04-07T14:02:47;17.10;54.80
1994;DHT22;998;49.906;10.908;2023-04-07T14:05:16;17.10;55.90
1994;DHT22;998;49.906;10.908;2023-04-07T14:07:44;17.00;57.80
1994;DHT22;998;49.906;10.908;2023-04-07T14:10:11;16.90;56.70
1994;DHT22;998;49.906;10.908;2023-04-07T14:12:39;16.70;55.90
1994;DHT22;998;49.906;10.908;2023-04-07T14:15:07;16.60;55.90
1994;DHT22;998;49.906;10.908;2023-04-07T14:17:34;16.20;54.50
1994;DHT22;998;49.906;10.908;2023-04-07T14:20:02;15.90;56.80
1994;DHT22;998;49.906;10.908;2023-04-07T14:22:31;15.60;57.10
1994;DHT22;998;49.906;10.908;2023-04-07T14:24:59;15.50;58.00
1994;DHT22;998;49.906;10.908;2023-04-07T14:27:26;15.30;59.00
1994;DHT22;998;49.906;10.908;2023-04-07T14:29:55;15.30;59.90
1994;DHT22;998;49.906;10.908;2023-04-07T14:32:25;15.30;61.90
1994;DHT22;998;49.906;10.908;2023-04-07T14:34:54;15.30;60.80
1994;DHT22;998;49.906;10.908;2023-04-07T14:37:21;15.40;63.10
1994;DHT22;998;49.906;10.908;2023-04-07T14:39:52;15.50;63.20
1994;DHT22;998;49.906;10.908;2023-04-07T14:42:20;15.50;62.20
1994;DHT22;998;49.906;10.908;2023-04-07T14:44:47;15.40;62.90
1994;DHT22;998;49.906;10.908;2023-04-07T14:47:14;15.30;64.70
1994;DHT22;998;49.906;10.908;2023-04-07T14:49:42;15.20;68.70
1994;DHT22;998;49.906;10.908;2023-04-07T14:52:09;15.10;68.40
1994;DHT22;998;49.906;10.908;2023-04-07T14:54:38;15.10;68.60
1994;DHT22;998;49.906;10.908;2023-04-07T14:57:07;15.20;69.10
1994;DHT22;998;49.906;10.908;2023-04-07T14:59:34;15.10;68.70
1994;DHT22;998;49.906;10.908;2023-04-07T15:02:01;15.20;70.60
1994;DHT22;998;49.906;10.908;2023-04-07T15:04:29;15.20;71.70
1994;DHT22;998;49.906;10.908;2023-04-07T15:06:56;15.20;72.60
1994;DHT22;998;49.906;10.908;2023-04-07T15:09:24;15.10;72.70
1994;DHT22;998;49.906;10.908;2023-04-07T15:11:51;14.80;73.40
1994;DHT22;998;49.906;10.908;2023-04-07T15:14:20;14.80;73.90
1994;DHT22;998;49.906;10.908;2023-04-07T15:16:47;14.60;74.90
1994;DHT22;998;49.906;10.908;2023-04-07T15:19:15;14.50;75.10
1994;DHT22;998;49.906;10.908;2023-04-07T15:21:42;14.40;75.60
1994;DHT22;998;49.906;10.908;2023-04-07T15:24:09;14.40;75.90
1994;DHT22;998;49.906;10.908;2023-04-07T15:26:37;14.20;77.50
1994;DHT22;998;49.906;10.908;2023-04-07T15:29:04;14.20;78.00
1994;DHT22;998;49.906;10.908;2023-04-07T15:31:33;14.10;77.90
1994;DHT22;998;49.906;10.908;2023-04-07T15:34:00;14.00;77.50
1994;DHT22;998;49.906;10.908;2023-04-07T15:36:28;13.90;78.10
1994;DHT22;998;49.906;10.908;2023-04-07T15:38:56;14.00;78.40
1994;DHT22;998;49.906;10.908;2023-04-07T15:41:23;14.00;77.90
1994;DHT22;998;49.906;10.908;2023-04-07T15:43:52;14.00;78.20
1994;DHT22;998;49.906;10.908;2023-04-07T15:46:19;14.00;78.50
1994;DHT22;998;49.906;10.908;2023-04-07T15:48:48;14.00;78.90
1994;DHT22;998;49.906;10.908;2023-04-07T15:51:16;14.10;80.00
1994;DHT22;998;49.906;10.908;2023-04-07T15:53:44;14.10;79.30
1994;DHT22;998;49.906;10.908;2023-04-07T15:56:11;14.00;79.40
1994;DHT22;998;49.906;10.908;2023-04-07T15:58:39;13.90;80.40
1994;DHT22;998;49.906;10.908;2023-04-07T16:01:07;13.80;79.40
1994;DHT22;998;49.906;10.908;2023-04-07T16:03:34;13.80;80.30
1994;DHT22;998;49.906;10.908;2023-04-07T16:06:03;13.70;80.70
1994;DHT22;998;49.906;10.908;2023-04-07T16:08:31;13.60;81.30
1994;DHT22;998;49.906;10.908;2023-04-07T16:10:58;13.60;81.90
1994;DHT22;998;49.906;10.908;2023-04-07T16:13:26;13.50;81.70
1994;DHT22;998;49.906;10.908;2023-04-07T16:15:54;13.50;81.80
1994;DHT22;998;49.906;10.908;2023-04-07T16:18:22;13.40;81.50
1994;DHT22;998;49.906;10.908;2023-04-07T16:20:52;13.30;82.00
1994;DHT22;998;49.906;10.908;2023-04-07T16:23:25;13.30;82.30
1994;DHT22;998;49.906;10.908;2023-04-07T16:25:52;13.20;83.50